createdAt,value
2023-05-10T00:00:47.776Z,98.38
2023-05-10T00:03:14.998Z,98.74
2023-05-10T00:05:42.052Z,97.63
2023-05-10T00:08:09.230Z,97.45
2023-05-10T00:10:37.288Z,96.88
2023-05-10T00:13:04.596Z,95.97
2023-05-10T00:15:31.749Z,94.57
2023-05-10T00:17:59.129Z,94.03
2023-05-10T00:20:26.245Z,93.88
2023-05-10T00:22:53.302Z,92.18
2023-05-10T00:25:21.749Z,91.59
2023-05-10T00:27:48.967Z,90.27
2023-05-10T00:30:16.297Z,90.46
2023-05-10T00:32:44.598Z,90.12
2023-05-10T00:35:12.023Z,91.42
2023-05-10T00:37:39.022Z,92.72
2023-05-10T00:40:07.525Z,93.65
2023-05-10T00:42:34.802Z,94.58
2023-05-10T00:45:02.451Z,96.19
2023-05-10T00:47:30.981Z,95.61
2023-05-10T00:49:58.422Z,93.34
2023-05-10T00:52:27.070Z,93.53
2023-05-10T00:54:55.126Z,96.27
2023-05-10T00:57:22.733Z,97.82
2023-05-10T00:59:50.197Z,100.00
2023-05-10T01:02:17.282Z,100.00
2023-05-10T01:04:44.999Z,98.34
2023-05-10T01:07:12.249Z,97.64
2023-05-10T01:09:39.555Z,98.08
2023-05-10T01:12:08.457Z,97.30
2023-05-10T01:14:37.380Z,94.65
2023-05-10T01:17:06.548Z,94.19
2023-05-10T01:19:36.129Z,95.08
2023-05-10T01:22:03.020Z,94.77
2023-05-10T01:25:01.629Z,96.25
2023-05-10T01:27:53.236Z,99.50
2023-05-10T01:30:26.152Z,100.00
2023-05-10T01:33:16.725Z,100.00
2023-05-10T01:35:56.801Z,98.37
2023-05-10T01:38:30.055Z,95.36
2023-05-10T01:41:21.234Z,95.39
2023-05-10T01:44:10.195Z,94.81
2023-05-10T01:46:38.992Z,93.19
2023-05-10T01:49:38.135Z,92.10
2023-05-10T01:52:13.452Z,91.29
2023-05-10T01:54:45.873Z,91.60
2023-05-10T01:57:15.658Z,91.36
2023-05-10T01:59:46.670Z,92.25
2023-05-10T02:02:15.273Z,92.83
2023-05-10T02:04:43.418Z,94.83
2023-05-10T02:07:11.694Z,93.04
2023-05-10T02:09:39.827Z,93.25
2023-05-10T02:12:09.495Z,95.62
2023-05-10T02:14:38.274Z,97.53
2023-05-10T02:17:07.873Z,98.35
2023-05-10T02:19:37.299Z,98.10
2023-05-10T02:22:05.119Z,99.14
2023-05-10T02:24:34.666Z,100.00
2023-05-10T02:27:04.769Z,100.00
2023-05-10T02:29:33.622Z,100.00
2023-05-10T02:32:01.981Z,100.00
2023-05-10T02:34:29.740Z,100.00
2023-05-10T02:36:57.690Z,99.99
2023-05-10T02:39:25.978Z,99.46
2023-05-10T02:41:54.697Z,99.35
2023-05-10T02:44:23.312Z,98.06
2023-05-10T02:46:51.000Z,98.43
2023-05-10T02:49:18.249Z,100.00
2023-05-10T02:51:56.650Z,100.00
2023-05-10T02:54:30.912Z,100.00
2023-05-10T02:57:02.875Z,100.00
2023-05-10T02:59:29.946Z,100.00
2023-05-10T03:01:57.053Z,100.00
2023-05-10T03:04:24.138Z,99.52
2023-05-10T03:06:54.222Z,98.19
2023-05-10T03:09:22.231Z,97.91
2023-05-10T03:12:12.820Z,96.93
2023-05-10T03:15:01.257Z,97.36
2023-05-10T03:17:41.440Z,97.13
2023-05-10T03:20:12.787Z,96.53
2023-05-10T03:22:46.861Z,95.11
2023-05-10T03:25:17.832Z,94.83
2023-05-10T03:27:46.341Z,94.38
2023-05-10T03:30:14.674Z,94.19
2023-05-10T03:32:42.425Z,93.50
2023-05-10T03:35:14.464Z,93.27
2023-05-10T03:37:42.363Z,94.18
2023-05-10T03:40:11.272Z,92.95
2023-05-10T03:42:41.145Z,92.08
2023-05-10T03:45:08.965Z,91.92
2023-05-10T03:47:36.221Z,90.90
2023-05-10T03:50:03.621Z,90.38
2023-05-10T03:52:30.708Z,89.90
2023-05-10T03:54:57.707Z,91.66
2023-05-10T03:57:25.136Z,92.71
2023-05-10T03:59:52.399Z,91.14
2023-05-10T04:02:19.437Z,91.97
2023-05-10T04:04:46.460Z,89.46
2023-05-10T04:07:13.686Z,89.64
2023-05-10T04:09:40.843Z,88.55
2023-05-10T04:12:10.178Z,87.63
2023-05-10T04:14:38.370Z,85.13
2023-05-10T04:17:05.705Z,85.99
2023-05-10T04:19:33.070Z,84.50
2023-05-10T04:22:00.133Z,82.78
2023-05-10T04:24:27.198Z,85.01
2023-05-10T04:26:57.789Z,80.57
2023-05-10T04:29:25.099Z,78.22
2023-05-10T04:31:52.169Z,77.35
2023-05-10T04:34:19.810Z,76.84
2023-05-10T04:36:46.777Z,78.21
2023-05-10T04:39:14.849Z,75.48
2023-05-10T04:41:41.834Z,77.01
2023-05-10T04:44:08.916Z,74.44
2023-05-10T04:46:36.009Z,74.21
2023-05-10T04:49:03.352Z,76.28
2023-05-10T04:51:30.305Z,74.93
2023-05-10T04:54:06.243Z,74.21
2023-05-10T04:56:34.450Z,74.44
2023-05-10T04:59:01.582Z,80.11
2023-05-10T05:01:28.680Z,82.08
2023-05-10T05:03:55.905Z,80.84
2023-05-10T05:06:23.133Z,80.21
2023-05-10T05:08:50.792Z,79.50
2023-05-10T05:11:18.742Z,79.03
2023-05-10T05:13:45.994Z,77.19
2023-05-10T05:16:13.061Z,76.77
2023-05-10T05:18:40.230Z,76.69
2023-05-10T05:21:20.858Z,76.19
2023-05-10T05:23:48.688Z,76.67
2023-05-10T05:26:16.281Z,78.67
2023-05-10T05:28:43.281Z,74.70
2023-05-10T05:31:10.452Z,75.27
2023-05-10T05:33:37.919Z,75.04
2023-05-10T05:36:06.576Z,73.23
2023-05-10T05:38:33.671Z,73.95
2023-05-10T05:41:00.787Z,69.88
2023-05-10T05:43:27.818Z,69.95
2023-05-10T05:45:55.232Z,70.21
2023-05-10T05:48:22.815Z,70.77
2023-05-10T05:50:49.824Z,69.05
2023-05-10T05:53:16.963Z,69.86
2023-05-10T05:56:10.771Z,72.75
2023-05-10T05:58:37.765Z,68.86
2023-05-10T06:01:04.806Z,68.60
2023-05-10T06:03:31.911Z,66.41
2023-05-10T06:05:59.039Z,64.39
2023-05-10T06:08:26.852Z,65.68
2023-05-10T06:10:53.837Z,66.06
2023-05-10T06:13:20.871Z,65.81
2023-05-10T06:15:47.899Z,68.55
2023-05-10T06:18:14.935Z,66.42
2023-05-10T06:20:44.040Z,66.26
2023-05-10T06:23:11.057Z,63.86
2023-05-10T06:25:38.084Z,64.03
2023-05-10T06:28:05.104Z,61.02
2023-05-10T06:30:32.160Z,61.01
2023-05-10T06:32:59.250Z,60.75
2023-05-10T06:35:26.305Z,59.30
2023-05-10T06:37:54.062Z,60.14
2023-05-10T06:40:21.384Z,56.35
2023-05-10T06:42:49.069Z,57.41
2023-05-10T06:45:17.306Z,56.96
2023-05-10T06:47:44.971Z,55.02
2023-05-10T06:50:14.897Z,55.95
2023-05-10T06:52:41.982Z,55.60
2023-05-10T06:55:09.938Z,56.07
2023-05-10T06:57:37.000Z,54.18
2023-05-10T07:00:08.089Z,54.04
2023-05-10T07:02:35.235Z,55.54
2023-05-10T07:05:03.674Z,54.70
2023-05-10T07:07:30.941Z,55.10
2023-05-10T07:09:58.803Z,51.72
2023-05-10T07:12:26.462Z,53.29
2023-05-10T07:14:53.650Z,51.24
2023-05-10T07:17:21.142Z,50.75
2023-05-10T07:19:48.221Z,50.93
2023-05-10T07:22:16.757Z,47.33
2023-05-10T07:24:43.933Z,48.64
2023-05-10T07:27:11.077Z,51.35
2023-05-10T07:29:38.641Z,48.98
2023-05-10T07:32:06.978Z,48.38
2023-05-10T07:34:34.097Z,49.47
2023-05-10T07:37:02.184Z,52.65
2023-05-10T07:39:29.361Z,54.44
2023-05-10T07:41:57.050Z,55.52
2023-05-10T07:44:24.331Z,57.54
2023-05-10T07:46:51.773Z,55.11
2023-05-10T07:49:18.956Z,54.98
2023-05-10T07:51:46.339Z,53.63
2023-05-10T07:54:13.855Z,55.97
2023-05-10T07:56:45.856Z,60.90
2023-05-10T07:59:16.814Z,64.68
2023-05-10T08:01:44.358Z,63.02
2023-05-10T08:04:11.643Z,61.63
2023-05-10T08:06:38.904Z,63.27
2023-05-10T08:09:06.092Z,65.21
2023-05-10T08:11:34.859Z,64.34
2023-05-10T08:14:02.398Z,63.66
2023-05-10T08:16:30.096Z,61.06
2023-05-10T08:18:57.410Z,64.38
2023-05-10T08:21:24.683Z,64.29
2023-05-10T08:23:51.837Z,62.68
2023-05-10T08:26:18.964Z,64.11
2023-05-10T08:28:46.171Z,63.91
2023-05-10T08:31:13.389Z,64.05
2023-05-10T08:33:42.143Z,64.20
2023-05-10T08:36:10.203Z,62.94
2023-05-10T08:38:38.980Z,61.34
2023-05-10T08:41:07.242Z,61.77
2023-05-10T08:43:37.103Z,63.28
2023-05-10T08:46:08.939Z,62.44
2023-05-10T08:48:36.650Z,61.55
2023-05-10T08:51:05.050Z,59.08
2023-05-10T08:53:33.752Z,64.38
2023-05-10T08:56:02.280Z,69.72
2023-05-10T08:58:29.538Z,70.16
2023-05-10T09:00:58.244Z,69.59
2023-05-10T09:03:25.390Z,70.86
2023-05-10T09:05:52.760Z,69.24
2023-05-10T09:08:21.176Z,69.40
2023-05-10T09:10:49.649Z,70.25
2023-05-10T09:13:16.833Z,67.70
2023-05-10T09:15:46.387Z,65.36
2023-05-10T09:18:14.082Z,62.63
2023-05-10T09:20:42.073Z,66.99
2023-05-10T09:23:09.895Z,67.49
2023-05-10T09:25:39.746Z,67.45
2023-05-10T09:28:10.835Z,64.94
2023-05-10T09:30:38.158Z,66.11
2023-05-10T09:33:05.403Z,66.28
2023-05-10T09:35:34.577Z,62.20
2023-05-10T09:38:05.318Z,60.82
2023-05-10T09:40:33.952Z,60.92
2023-05-10T09:43:02.065Z,60.75
2023-05-10T09:45:36.207Z,59.92
2023-05-10T09:48:05.631Z,60.22
2023-05-10T09:50:32.893Z,64.18
2023-05-10T09:53:02.237Z,60.88
2023-05-10T09:55:41.653Z,54.89
2023-05-10T09:58:12.027Z,58.60
2023-05-10T10:00:41.370Z,65.31
2023-05-10T10:03:15.420Z,64.35
2023-05-10T10:05:44.393Z,63.68
2023-05-10T10:08:13.270Z,61.09
2023-05-10T10:10:46.436Z,61.82
2023-05-10T10:13:14.104Z,58.76
2023-05-10T10:15:41.789Z,61.57
2023-05-10T10:18:13.531Z,62.40
2023-05-10T10:20:41.500Z,62.49
2023-05-10T10:23:09.774Z,60.14
2023-05-10T10:25:37.163Z,58.82
2023-05-10T10:28:23.297Z,55.73
2023-05-10T10:30:54.774Z,58.45
2023-05-10T10:33:58.128Z,56.12
2023-05-10T10:36:28.187Z,58.10
2023-05-10T10:38:59.134Z,58.86
2023-05-10T10:41:33.402Z,56.87
2023-05-10T10:44:31.863Z,59.30
2023-05-10T10:47:24.312Z,56.99
2023-05-10T10:49:52.969Z,55.48
2023-05-10T10:52:34.580Z,60.12
2023-05-10T10:55:12.078Z,59.94
2023-05-10T10:57:42.561Z,62.96
2023-05-10T11:00:26.924Z,65.32
2023-05-10T11:03:00.461Z,66.88
2023-05-10T11:06:04.361Z,58.13
2023-05-10T11:08:34.039Z,59.66
2023-05-10T11:11:08.148Z,59.58
2023-05-10T11:13:48.434Z,62.96
2023-05-10T11:16:22.551Z,60.43
2023-05-10T11:18:55.558Z,60.31
2023-05-10T11:21:23.018Z,61.57
2023-05-10T11:23:53.305Z,61.50
2023-05-10T11:26:21.760Z,60.41
2023-05-10T11:28:50.134Z,61.17
2023-05-10T11:31:21.481Z,60.88
2023-05-10T11:33:53.278Z,59.24
2023-05-10T11:36:22.693Z,58.65
2023-05-10T11:38:50.540Z,62.11
2023-05-10T11:41:20.176Z,60.55
2023-05-10T11:43:50.476Z,61.33
2023-05-10T11:46:21.511Z,60.55
2023-05-10T11:48:53.840Z,61.77
2023-05-10T11:51:25.145Z,63.90
2023-05-10T11:53:54.826Z,63.29
2023-05-10T11:56:22.022Z,57.51
2023-05-10T11:58:58.092Z,59.34
2023-05-10T12:01:29.406Z,60.03
2023-05-10T12:04:00.986Z,61.08
2023-05-10T12:06:35.001Z,57.54
2023-05-10T12:09:07.437Z,56.36
2023-05-10T12:11:40.162Z,55.75
2023-05-10T12:14:10.443Z,56.19
2023-05-10T12:16:37.693Z,56.52
2023-05-10T12:19:04.990Z,56.23
2023-05-10T12:21:32.439Z,58.30
2023-05-10T12:24:08.705Z,58.29
2023-05-10T12:26:36.643Z,59.07
2023-05-10T12:29:17.138Z,56.08
2023-05-10T12:31:58.018Z,58.26
2023-05-10T12:34:37.254Z,55.81
2023-05-10T12:37:04.924Z,53.29
2023-05-10T12:39:43.461Z,54.51
2023-05-10T12:42:11.628Z,53.74
2023-05-10T12:44:41.007Z,59.57
2023-05-10T12:47:08.472Z,61.02
2023-05-10T12:49:35.605Z,58.80
2023-05-10T12:52:02.895Z,57.24
2023-05-10T12:54:29.956Z,61.03
2023-05-10T12:56:57.057Z,60.56
2023-05-10T12:59:24.173Z,61.12
2023-05-10T13:01:51.344Z,58.94
2023-05-10T13:04:18.488Z,58.54
2023-05-10T13:06:45.727Z,57.04
2023-05-10T13:09:13.158Z,61.05
2023-05-10T13:11:40.604Z,60.33
2023-05-10T13:14:08.109Z,60.32
2023-05-10T13:16:35.188Z,58.68
2023-05-10T13:19:02.620Z,59.72
2023-05-10T13:21:29.830Z,60.16
2023-05-10T13:23:56.870Z,59.44
2023-05-10T13:26:23.964Z,62.28
2023-05-10T13:28:52.872Z,61.21
2023-05-10T13:31:20.094Z,62.77
2023-05-10T13:33:47.344Z,63.58
2023-05-10T13:36:14.468Z,63.72
2023-05-10T13:38:41.833Z,61.47
2023-05-10T13:41:09.026Z,62.69
2023-05-10T13:43:37.147Z,64.76
2023-05-10T13:46:04.377Z,61.59
2023-05-10T13:48:31.571Z,63.70
2023-05-10T13:50:58.683Z,62.35
2023-05-10T13:53:25.923Z,61.54
2023-05-10T13:56:11.315Z,64.61
2023-05-10T13:58:38.467Z,63.29
2023-05-10T14:01:05.994Z,64.53
2023-05-10T14:03:33.912Z,64.28
2023-05-10T14:06:01.262Z,65.20
2023-05-10T14:08:28.426Z,62.39
2023-05-10T14:10:57.369Z,63.06
2023-05-10T14:13:24.953Z,64.46
2023-05-10T14:15:52.536Z,66.96
2023-05-10T14:18:19.767Z,64.16
2023-05-10T14:20:47.053Z,64.07
2023-05-10T14:23:14.149Z,64.97
2023-05-10T14:25:41.998Z,63.16
2023-05-10T14:28:09.146Z,64.47
2023-05-10T14:30:36.474Z,62.40
2023-05-10T14:33:04.117Z,61.45
2023-05-10T14:35:34.259Z,61.59
2023-05-10T14:38:02.805Z,61.76
2023-05-10T14:40:30.446Z,59.50
2023-05-10T14:42:58.015Z,60.94
2023-05-10T14:45:25.232Z,62.25
2023-05-10T14:47:52.544Z,60.72
2023-05-10T14:50:35.325Z,61.16
2023-05-10T14:53:03.486Z,65.19
2023-05-10T14:55:31.149Z,57.06
2023-05-10T14:57:59.412Z,58.50
2023-05-10T15:00:26.928Z,60.36
2023-05-10T15:02:54.349Z,63.34
2023-05-10T15:05:22.104Z,61.20
2023-05-10T15:07:49.812Z,61.64
2023-05-10T15:10:17.439Z,62.86
2023-05-10T15:12:44.532Z,63.25
2023-05-10T15:15:11.686Z,61.73
2023-05-10T15:17:38.826Z,64.11
2023-05-10T15:20:06.623Z,67.75
2023-05-10T15:22:34.447Z,69.02
2023-05-10T15:25:01.808Z,61.05
2023-05-10T15:27:28.966Z,64.60
2023-05-10T15:29:56.391Z,65.60
2023-05-10T15:32:23.514Z,65.99
2023-05-10T15:34:50.601Z,66.58
2023-05-10T15:37:17.823Z,65.37
2023-05-10T15:39:45.527Z,66.49
2023-05-10T15:42:13.560Z,67.55
2023-05-10T15:44:40.966Z,69.12
2023-05-10T15:47:08.075Z,69.82
2023-05-10T15:49:35.240Z,68.47
2023-05-10T15:52:02.343Z,66.50
2023-05-10T15:54:29.580Z,69.59
2023-05-10T15:56:56.992Z,71.71
2023-05-10T15:59:24.117Z,70.34
2023-05-10T16:01:52.155Z,71.25
2023-05-10T16:04:19.277Z,71.97
2023-05-10T16:06:46.400Z,72.46
2023-05-10T16:09:16.523Z,72.01
2023-05-10T16:11:44.276Z,72.16
2023-05-10T16:14:11.350Z,72.07
2023-05-10T16:16:38.520Z,70.90
2023-05-10T16:19:05.826Z,71.62
2023-05-10T16:21:33.516Z,71.71
2023-05-10T16:24:01.208Z,71.83
2023-05-10T16:26:28.337Z,75.34
2023-05-10T16:28:55.502Z,75.15
2023-05-10T16:31:23.405Z,74.36
2023-05-10T16:33:50.585Z,75.80
2023-05-10T16:36:17.617Z,76.26
2023-05-10T16:38:44.762Z,76.73
2023-05-10T16:41:11.917Z,76.74
2023-05-10T16:43:39.047Z,75.69
2023-05-10T16:46:11.529Z,76.80
2023-05-10T16:48:38.941Z,76.96
2023-05-10T16:51:06.057Z,76.75
2023-05-10T16:53:33.160Z,74.86
2023-05-10T16:56:00.291Z,74.04
2023-05-10T16:58:27.400Z,74.87
2023-05-10T17:00:54.498Z,75.70
2023-05-10T17:03:21.659Z,77.42
2023-05-10T17:05:48.778Z,77.89
2023-05-10T17:08:16.645Z,79.05
2023-05-10T17:10:43.916Z,79.41
2023-05-10T17:13:11.187Z,80.37
2023-05-10T17:15:39.444Z,78.50
2023-05-10T17:18:07.630Z,75.33
2023-05-10T17:20:35.024Z,76.07
2023-05-10T17:23:03.441Z,75.47
2023-05-10T17:25:30.826Z,75.84
2023-05-10T17:27:57.919Z,75.91
2023-05-10T17:30:28.354Z,76.49
2023-05-10T17:32:55.747Z,79.02
2023-05-10T17:35:22.873Z,78.58
2023-05-10T17:37:49.920Z,77.34
2023-05-10T17:40:17.316Z,76.35
2023-05-10T17:42:44.933Z,76.64
2023-05-10T17:45:12.193Z,77.63
2023-05-10T17:47:39.324Z,77.44
2023-05-10T17:50:07.250Z,76.84
2023-05-10T17:52:34.309Z,75.67
2023-05-10T17:55:01.718Z,74.81
2023-05-10T17:57:28.854Z,74.94
2023-05-10T17:59:56.064Z,75.81
2023-05-10T18:02:23.283Z,76.28
2023-05-10T18:04:50.539Z,76.53
2023-05-10T18:07:17.782Z,75.57
2023-05-10T18:09:45.310Z,73.62
2023-05-10T18:12:12.556Z,74.05
2023-05-10T18:14:41.466Z,76.24
2023-05-10T18:17:10.154Z,75.69
2023-05-10T18:19:37.425Z,75.48
2023-05-10T18:22:05.337Z,74.51
2023-05-10T18:27:03.563Z,73.54
2023-05-10T18:29:30.689Z,73.21
2023-05-10T18:31:57.784Z,72.97
2023-05-10T18:34:24.974Z,75.60
2023-05-10T18:36:52.564Z,74.42
2023-05-10T18:39:19.870Z,74.86
2023-05-10T18:41:47.026Z,75.60
2023-05-10T18:44:14.665Z,74.33
2023-05-10T18:46:42.682Z,73.82
2023-05-10T18:49:09.902Z,73.45
2023-05-10T18:51:36.953Z,73.05
2023-05-10T18:54:04.649Z,74.17
2023-05-10T18:56:31.772Z,75.12
2023-05-10T18:58:59.078Z,73.41
2023-05-10T19:01:26.255Z,73.51
2023-05-10T19:03:53.382Z,72.60
2023-05-10T19:06:20.957Z,73.83
2023-05-10T19:08:48.139Z,73.73
2023-05-10T19:11:15.737Z,74.14
2023-05-10T19:13:42.986Z,75.42
2023-05-10T19:16:16.681Z,75.79
2023-05-10T19:18:45.218Z,76.97
2023-05-10T19:21:13.901Z,77.59
2023-05-10T19:23:42.089Z,76.85
2023-05-10T19:26:11.105Z,76.07
2023-05-10T19:28:38.690Z,75.26
2023-05-10T19:31:05.776Z,74.77
2023-05-10T19:33:33.019Z,76.82
2023-05-10T19:36:00.095Z,76.55
2023-05-10T19:38:27.278Z,78.57
2023-05-10T19:41:00.486Z,79.59
2023-05-10T19:43:29.569Z,79.67
2023-05-10T19:46:01.978Z,80.63
2023-05-10T19:48:29.480Z,80.12
2023-05-10T19:51:04.830Z,80.21
2023-05-10T19:53:33.563Z,81.58
2023-05-10T19:56:07.297Z,81.99
2023-05-10T19:58:34.719Z,81.24
2023-05-10T20:01:01.930Z,80.44
2023-05-10T20:03:29.328Z,79.78
2023-05-10T20:05:56.543Z,80.51
2023-05-10T20:08:23.650Z,80.10
2023-05-10T20:10:50.908Z,81.52
2023-05-10T20:13:18.153Z,81.68
2023-05-10T20:15:46.472Z,80.87
2023-05-10T20:18:13.643Z,81.23
2023-05-10T20:20:40.898Z,81.99
2023-05-10T20:23:07.971Z,82.10
2023-05-10T20:25:35.656Z,82.75
2023-05-10T20:28:03.164Z,83.20
2023-05-10T20:30:30.241Z,83.07
2023-05-10T20:32:57.428Z,83.46
2023-05-10T20:35:24.599Z,83.52
2023-05-10T20:37:51.693Z,82.65
2023-05-10T20:40:19.093Z,80.83
2023-05-10T20:42:46.381Z,81.48
2023-05-10T20:45:13.455Z,82.07
2023-05-10T20:47:40.651Z,83.18
2023-05-10T20:50:08.226Z,83.20
2023-05-10T20:52:35.289Z,82.62
2023-05-10T20:55:02.366Z,84.06
2023-05-10T20:57:29.449Z,82.74
2023-05-10T20:59:57.606Z,82.11
2023-05-10T21:02:24.715Z,83.62
2023-05-10T21:04:52.098Z,83.78
2023-05-10T21:07:19.255Z,82.03
2023-05-10T21:09:46.530Z,82.73
2023-05-10T21:12:13.798Z,82.05
2023-05-10T21:14:42.444Z,83.67
2023-05-10T21:17:09.722Z,83.35
2023-05-10T21:19:36.845Z,82.95
2023-05-10T21:22:04.004Z,83.33
2023-05-10T21:24:31.125Z,83.42
2023-05-10T21:26:58.217Z,82.21
2023-05-10T21:29:25.272Z,83.29
2023-05-10T21:31:52.386Z,82.97
2023-05-10T21:34:19.472Z,82.12
2023-05-10T21:36:46.549Z,80.87
2023-05-10T21:39:13.764Z,82.49
2023-05-10T21:41:41.052Z,82.29
2023-05-10T21:44:08.104Z,81.78
2023-05-10T21:46:35.172Z,81.39
2023-05-10T21:49:02.291Z,81.35
2023-05-10T21:51:29.370Z,81.11
2023-05-10T21:53:56.507Z,80.04
2023-05-10T21:56:23.723Z,79.65
2023-05-10T21:58:50.957Z,79.82
2023-05-10T22:01:18.211Z,80.26
2023-05-10T22:03:45.432Z,80.61
2023-05-10T22:06:12.666Z,80.35
2023-05-10T22:08:39.831Z,80.75
2023-05-10T22:11:06.908Z,81.19
2023-05-10T22:13:34.043Z,80.52
2023-05-10T22:16:01.154Z,80.72
2023-05-10T22:18:28.270Z,79.24
2023-05-10T22:20:55.349Z,77.42
2023-05-10T22:23:22.593Z,75.51
2023-05-10T22:25:49.696Z,77.83
2023-05-10T22:28:16.860Z,78.78
2023-05-10T22:30:44.163Z,80.70
2023-05-10T22:33:11.259Z,82.40
2023-05-10T22:35:38.377Z,81.27
2023-05-10T22:38:05.604Z,81.02
2023-05-10T22:40:32.870Z,81.87
2023-05-10T22:42:59.983Z,83.01
2023-05-10T22:45:27.406Z,83.56
2023-05-10T22:47:54.646Z,82.22
2023-05-10T22:50:21.860Z,82.04
2023-05-10T22:52:48.956Z,82.52
2023-05-10T22:55:16.219Z,82.45
2023-05-10T22:57:43.431Z,81.55
2023-05-10T23:00:11.043Z,80.55
2023-05-10T23:02:38.221Z,81.69
2023-05-10T23:05:05.955Z,81.16
2023-05-10T23:07:33.241Z,80.57
2023-05-10T23:10:00.275Z,78.29
2023-05-10T23:12:27.359Z,78.43
2023-05-10T23:14:54.923Z,77.77
2023-05-10T23:17:22.219Z,78.09
2023-05-10T23:19:49.250Z,78.36
2023-05-10T23:22:16.327Z,78.76
2023-05-10T23:24:43.491Z,78.09
2023-05-10T23:27:11.465Z,78.45
2023-05-10T23:29:38.481Z,79.91
2023-05-10T23:32:05.819Z,80.72
2023-05-10T23:34:32.900Z,81.68
2023-05-10T23:37:00.029Z,82.93
2023-05-10T23:39:27.068Z,83.60
2023-05-10T23:41:54.204Z,82.69
2023-05-10T23:44:21.247Z,80.36
2023-05-10T23:46:48.272Z,79.52
2023-05-10T23:49:15.415Z,78.49
2023-05-10T23:51:42.446Z,78.67
2023-05-10T23:54:09.646Z,81.63
2023-05-10T23:56:36.726Z,83.75
2023-05-10T23:59:05.991Z,83.43
